createdAt,value
2022-12-18T09:30:15.122Z,14.73
2022-12-18T09:32:22.318Z,16.33
2022-12-18T09:34:25.070Z,16.87
2022-12-18T09:36:27.365Z,16.87
2022-12-18T09:38:30.121Z,19.33
2022-12-18T09:40:42.799Z,18.87
2022-12-18T09:42:52.755Z,17.50
2022-12-18T09:44:55.603Z,19.98
2022-12-18T09:47:21.387Z,19.73
2022-12-18T09:49:28.735Z,18.00
2022-12-18T09:51:39.663Z,19.35
2022-12-18T09:53:44.512Z,18.30
2022-12-18T09:55:49.297Z,14.85
2022-12-18T09:58:33.455Z,17.25
2022-12-18T10:00:35.832Z,18.37
2022-12-18T10:02:38.647Z,17.12
2022-12-18T10:04:41.093Z,18.52
2022-12-18T10:07:09.078Z,18.30
2022-12-18T10:09:33.265Z,20.48
2022-12-18T10:11:50.173Z,18.85
2022-12-18T10:13:52.554Z,20.88
2022-12-18T10:15:58.334Z,19.20
2022-12-18T10:18:17.253Z,17.95
2022-12-18T10:20:36.437Z,20.62
2022-12-18T10:22:50.999Z,19.80
2022-12-18T10:25:18.237Z,20.02
2022-12-18T10:27:24.773Z,19.60
2022-12-18T10:29:27.808Z,20.65
2022-12-18T10:31:30.230Z,19.25
2022-12-18T10:33:34.087Z,19.12
2022-12-18T10:35:37.357Z,19.73
2022-12-18T10:38:07.140Z,19.23
2022-12-18T10:40:21.785Z,19.55
2022-12-18T10:42:25.273Z,20.20
2022-12-18T10:44:27.550Z,18.20
2022-12-18T10:46:30.035Z,19.27
2022-12-18T10:48:55.711Z,20.20
2022-12-18T10:51:10.927Z,20.20
2022-12-18T10:53:21.393Z,19.05
2022-12-18T10:55:28.590Z,18.73
2022-12-18T10:57:35.847Z,19.25
2022-12-18T10:59:55.885Z,19.67
2022-12-18T11:01:59.824Z,19.55
2022-12-18T11:04:09.094Z,19.95
2022-12-18T11:06:22.829Z,21.23
2022-12-18T11:08:25.604Z,19.58
2022-12-18T11:10:40.172Z,19.48
2022-12-18T11:12:42.647Z,19.45
2022-12-18T11:14:51.943Z,19.27
2022-12-18T11:17:25.316Z,19.83
2022-12-18T11:19:54.120Z,19.67
2022-12-18T11:21:57.501Z,21.62
2022-12-18T11:24:00.139Z,19.67
2022-12-18T11:26:05.080Z,20.08
2022-12-18T11:28:30.372Z,19.50
2022-12-18T11:30:37.915Z,19.58
2022-12-18T11:32:44.215Z,21.50
2022-12-18T11:34:55.950Z,20.02
2022-12-18T11:37:03.839Z,20.00
2022-12-18T11:39:32.357Z,20.10
2022-12-18T11:42:09.074Z,20.20
2022-12-18T11:44:14.768Z,19.30
2022-12-18T11:46:35.675Z,19.83
2022-12-18T11:48:46.967Z,20.80
2022-12-18T11:53:04.226Z,19.95
2022-12-18T11:55:22.034Z,20.65
2022-12-18T11:57:39.860Z,19.73
2022-12-18T12:00:01.786Z,21.02
2022-12-18T12:02:36.800Z,21.60
2022-12-18T12:04:47.066Z,20.37
2022-12-18T12:06:49.239Z,19.67
2022-12-18T12:09:09.434Z,20.15
2022-12-18T12:11:42.948Z,19.37
2022-12-18T12:14:07.622Z,20.12
2022-12-18T12:16:38.676Z,19.73
2022-12-18T12:19:23.264Z,20.17
2022-12-18T12:21:42.114Z,18.55
2022-12-18T12:24:28.840Z,17.75
2022-12-18T12:26:44.055Z,17.65
2022-12-18T12:29:03.945Z,15.20
2022-12-18T12:31:44.264Z,15.57
2022-12-18T12:34:08.218Z,14.23
2022-12-18T12:36:28.954Z,13.68
2022-12-18T12:38:52.267Z,15.18
2022-12-18T12:41:06.440Z,15.18
2022-12-18T12:43:23.425Z,13.55
2022-12-18T12:45:40.062Z,13.73
2022-12-18T12:47:44.243Z,29.27
2022-12-18T12:49:48.767Z,13.25
2022-12-18T12:52:08.543Z,12.80
2022-12-18T12:54:20.791Z,13.20
2022-12-18T12:56:39.888Z,13.48
2022-12-18T12:58:54.037Z,15.15
2022-12-18T13:01:25.000Z,13.70
2022-12-18T13:03:40.058Z,13.23
2022-12-18T13:05:55.256Z,13.15
2022-12-18T13:08:07.678Z,13.30
2022-12-18T13:10:23.588Z,12.63
2022-12-18T13:12:47.884Z,13.88
2022-12-18T13:14:50.640Z,13.50
2022-12-18T13:17:10.827Z,13.32
2022-12-18T13:19:24.159Z,13.67
2022-12-18T13:21:33.404Z,14.00
2022-12-18T13:23:41.379Z,14.18
2022-12-18T13:25:44.592Z,13.98
2022-12-18T13:27:56.587Z,13.02
2022-12-18T13:29:59.196Z,15.80
2022-12-18T13:32:02.398Z,15.05
2022-12-18T13:34:27.441Z,19.08
2022-12-18T13:36:33.686Z,16.83
2022-12-18T13:38:38.253Z,16.25
2022-12-18T13:40:55.290Z,16.25
2022-12-18T13:43:29.828Z,16.55
2022-12-18T13:45:59.544Z,16.20
2022-12-18T13:48:02.202Z,18.45
2022-12-18T13:50:30.957Z,16.70
2022-12-18T13:52:40.428Z,16.73
2022-12-18T13:54:44.026Z,16.92
2022-12-18T13:56:47.654Z,19.65
2022-12-18T13:59:12.409Z,19.20
2022-12-18T14:01:24.929Z,20.90
2022-12-18T14:03:31.447Z,21.70
2022-12-18T14:05:38.620Z,22.35
2022-12-18T14:07:44.795Z,23.98
2022-12-18T14:10:25.922Z,23.33
2022-12-18T14:12:56.086Z,22.60
2022-12-18T14:14:59.723Z,23.33
2022-12-18T14:17:02.123Z,22.83
2022-12-18T14:19:18.159Z,22.37
2022-12-18T14:21:30.404Z,23.98
2022-12-18T14:23:32.640Z,22.62
2022-12-18T14:25:34.942Z,21.35
2022-12-18T14:27:42.729Z,20.90
2022-12-18T14:29:45.658Z,20.55
2022-12-18T14:32:18.764Z,19.25
2022-12-18T14:34:27.768Z,21.00
2022-12-18T14:36:30.968Z,18.90
2022-12-18T14:38:40.842Z,19.23
2022-12-18T14:40:44.868Z,22.60
2022-12-18T14:42:47.325Z,30.15
2022-12-18T14:45:12.316Z,17.30
2022-12-18T14:47:17.315Z,18.80
2022-12-18T14:49:32.777Z,18.33
2022-12-18T14:51:37.071Z,17.65
2022-12-18T14:53:47.740Z,19.85
2022-12-18T14:55:53.439Z,18.37
2022-12-18T14:57:57.867Z,19.00
2022-12-18T15:00:15.875Z,20.10
2022-12-18T15:02:30.086Z,20.50
2022-12-18T15:04:36.572Z,23.48
2022-12-18T15:06:41.545Z,20.45
2022-12-18T15:08:44.769Z,20.88
2022-12-18T15:10:50.033Z,21.92
2022-12-18T15:13:04.155Z,23.70
2022-12-18T15:15:40.371Z,20.37
2022-12-18T15:17:43.445Z,21.62
2022-12-18T15:19:48.453Z,22.10
2022-12-18T15:21:52.193Z,22.52
2022-12-18T15:24:04.140Z,22.30
2022-12-18T15:26:10.246Z,23.87
2022-12-18T15:28:36.977Z,23.50
2022-12-18T15:30:41.305Z,22.05
2022-12-18T15:32:46.333Z,22.85
2022-12-18T15:34:50.026Z,23.08
2022-12-18T15:36:53.390Z,21.80
2022-12-18T15:39:04.892Z,21.95
2022-12-18T15:41:24.476Z,21.80
2022-12-18T15:43:38.536Z,22.55
2022-12-18T15:45:42.347Z,19.73
2022-12-18T15:47:46.067Z,22.45
2022-12-18T15:49:49.273Z,19.90
2022-12-18T15:51:59.947Z,19.62
2022-12-18T15:54:06.702Z,20.27
2022-12-18T15:56:32.497Z,21.20
2022-12-18T15:58:36.340Z,21.65
2022-12-18T16:00:41.787Z,19.95
2022-12-18T16:02:47.041Z,19.98
2022-12-18T16:04:52.792Z,22.20
2022-12-18T16:07:14.486Z,22.37
2022-12-18T16:09:26.029Z,20.17
2022-12-18T16:11:42.756Z,24.48
2022-12-18T16:13:46.199Z,21.15
2022-12-18T16:15:51.816Z,21.45
2022-12-18T16:17:55.269Z,21.75
2022-12-18T16:20:00.502Z,21.23
2022-12-18T16:22:07.061Z,21.65
2022-12-18T16:24:31.044Z,21.42
2022-12-18T16:26:34.573Z,21.27
2022-12-18T16:28:42.495Z,22.60
2022-12-18T16:30:48.978Z,22.25
2022-12-18T16:32:52.176Z,20.92
2022-12-18T16:35:03.036Z,23.65
2022-12-18T16:37:09.778Z,22.62
2022-12-18T16:39:13.258Z,23.38
2022-12-18T16:41:47.456Z,22.13
2022-12-18T16:43:54.829Z,35.65
2022-12-18T16:46:00.566Z,24.15
2022-12-18T16:48:04.525Z,33.33
2022-12-18T16:50:09.011Z,26.65
2022-12-18T16:52:12.927Z,22.87
2022-12-18T16:54:19.040Z,24.12
2022-12-18T16:56:23.638Z,21.98
2022-12-18T16:58:27.372Z,23.62
2022-12-18T17:00:32.100Z,22.27
2022-12-18T17:02:39.293Z,21.87
2022-12-18T17:04:45.639Z,22.58
2022-12-18T17:06:52.486Z,22.37
2022-12-18T17:08:58.613Z,24.95
2022-12-18T17:11:09.061Z,21.98
2022-12-18T17:13:13.540Z,27.17
2022-12-18T17:15:17.174Z,24.05
2022-12-18T17:17:24.167Z,25.45
2022-12-18T17:19:28.915Z,25.73
2022-12-18T17:21:31.949Z,23.80
2022-12-18T17:23:35.618Z,22.00
2022-12-18T17:25:42.568Z,23.48
2022-12-18T17:27:49.120Z,24.75
2022-12-18T17:29:52.691Z,23.90
2022-12-18T17:31:57.701Z,25.42
2022-12-18T17:34:04.263Z,23.48
2022-12-18T17:36:07.867Z,22.65
2022-12-18T17:38:11.966Z,23.40
2022-12-18T17:40:15.121Z,25.80
2022-12-18T17:42:18.911Z,23.65
2022-12-18T17:44:22.412Z,22.50
2022-12-18T17:46:26.880Z,22.73
2022-12-18T17:48:31.178Z,25.52
2022-12-18T17:50:36.434Z,22.50
2022-12-18T17:52:39.921Z,23.65
2022-12-18T17:54:44.710Z,26.98
2022-12-18T17:56:52.410Z,23.00
2022-12-18T17:58:57.769Z,23.67
2022-12-18T18:01:07.826Z,24.58
2022-12-18T18:03:12.945Z,24.73
2022-12-18T18:05:16.804Z,25.85
2022-12-18T18:07:21.168Z,28.25
2022-12-18T18:09:25.049Z,24.70
2022-12-18T18:11:46.912Z,25.17
2022-12-18T18:14:01.967Z,23.08
2022-12-18T18:16:07.145Z,22.70
2022-12-18T18:18:10.655Z,25.88
2022-12-18T18:20:22.303Z,22.98
2022-12-18T18:22:26.184Z,24.33
2022-12-18T18:24:32.012Z,25.25
2022-12-18T18:26:37.228Z,26.58
2022-12-18T18:28:41.521Z,25.08
2022-12-18T18:30:45.760Z,24.17
2022-12-18T18:32:49.782Z,25.08
2022-12-18T18:34:56.986Z,25.45
2022-12-18T18:37:02.061Z,25.42
2022-12-18T18:39:05.796Z,25.48
2022-12-18T18:41:12.247Z,24.67
2022-12-18T18:43:15.510Z,25.88
2022-12-18T18:45:19.152Z,25.92
2022-12-18T18:47:22.780Z,25.95
2022-12-18T18:49:28.172Z,24.15
2022-12-18T18:51:35.049Z,26.23
2022-12-18T18:53:41.742Z,25.83
2022-12-18T18:55:44.836Z,24.12
2022-12-18T18:57:52.091Z,25.27
2022-12-18T18:59:56.337Z,24.08
2022-12-18T19:02:04.178Z,25.98
2022-12-18T19:04:09.019Z,25.42
2022-12-18T19:06:21.793Z,25.20
2022-12-18T19:08:26.631Z,25.92
2022-12-18T19:10:29.826Z,26.42
2022-12-18T19:12:54.093Z,23.98
2022-12-18T19:14:57.493Z,23.58
2022-12-18T19:17:00.608Z,24.02
2022-12-18T19:19:05.884Z,24.40
2022-12-18T19:21:10.887Z,24.33
2022-12-18T19:23:14.190Z,22.70
2022-12-18T19:25:18.418Z,24.10
2022-12-18T19:27:22.107Z,24.05
2022-12-18T19:29:25.893Z,22.92
2022-12-18T19:31:34.792Z,23.08
2022-12-18T19:33:43.495Z,21.52
2022-12-18T19:35:47.545Z,23.90
2022-12-18T19:37:51.466Z,24.83
2022-12-18T19:39:57.873Z,23.87
2022-12-18T19:42:03.706Z,24.27
2022-12-18T19:44:09.340Z,30.70
2022-12-18T19:46:15.255Z,22.75
2022-12-18T19:48:18.449Z,24.05
2022-12-18T19:50:21.564Z,24.37
2022-12-18T19:52:24.705Z,25.23
2022-12-18T19:54:28.085Z,25.55
2022-12-18T19:56:34.853Z,24.80
2022-12-18T19:58:39.027Z,27.23
2022-12-18T20:00:42.501Z,26.15
2022-12-18T20:02:48.412Z,27.35
2022-12-18T20:04:51.972Z,28.33
2022-12-18T20:06:55.287Z,30.30
2022-12-18T20:09:01.673Z,27.83
2022-12-18T20:11:05.016Z,30.02
2022-12-18T20:13:08.684Z,28.15
2022-12-18T20:15:12.604Z,29.65
2022-12-18T20:17:15.443Z,28.83
2022-12-18T20:19:18.853Z,30.90
2022-12-18T20:21:22.558Z,30.75
2022-12-18T20:23:25.956Z,30.60
2022-12-18T20:25:33.670Z,29.00
2022-12-18T20:27:36.902Z,30.70
2022-12-18T20:29:41.827Z,32.83
2022-12-18T20:31:46.203Z,38.17
2022-12-18T20:33:51.078Z,31.20
2022-12-18T20:35:55.451Z,30.10
2022-12-18T20:37:59.828Z,34.55
2022-12-18T20:40:04.526Z,34.00
2022-12-18T20:42:08.597Z,32.55
2022-12-18T20:44:22.662Z,33.40
2022-12-18T20:46:26.791Z,32.65
2022-12-18T20:48:30.450Z,35.80
2022-12-18T20:50:33.229Z,33.97
2022-12-18T20:52:36.056Z,32.45
2022-12-18T20:54:39.074Z,33.05
2022-12-18T20:56:43.646Z,32.80
2022-12-18T20:58:46.950Z,32.53
2022-12-18T21:00:49.334Z,33.55
2022-12-18T21:02:52.325Z,34.55
2022-12-18T21:04:55.260Z,33.33
2022-12-18T21:07:02.675Z,34.50
2022-12-18T21:09:06.154Z,34.60
2022-12-18T21:11:44.805Z,34.08
2022-12-18T21:13:47.346Z,32.35
2022-12-18T21:15:49.614Z,32.65
2022-12-18T21:17:52.647Z,34.00
2022-12-18T21:19:55.443Z,33.80
2022-12-18T21:21:58.346Z,31.70
2022-12-18T21:24:01.041Z,31.33
2022-12-18T21:26:21.227Z,33.42
2022-12-18T21:28:23.779Z,33.35
2022-12-18T21:30:26.433Z,32.30
2022-12-18T21:32:29.840Z,33.17
2022-12-18T21:34:35.970Z,30.83
2022-12-18T21:36:38.554Z,29.52
2022-12-18T21:38:40.950Z,30.02
2022-12-18T21:40:43.866Z,32.15
2022-12-18T21:43:05.323Z,32.15
2022-12-18T21:45:08.032Z,30.37
2022-12-18T21:47:21.412Z,30.33
2022-12-18T21:49:25.990Z,39.28
2022-12-18T21:51:28.548Z,29.40
2022-12-18T21:53:30.806Z,29.08
2022-12-18T21:55:33.448Z,31.05
2022-12-18T21:57:36.246Z,30.23
2022-12-18T21:59:40.302Z,31.45
2022-12-18T22:01:43.628Z,31.50
2022-12-18T22:03:46.463Z,30.70
2022-12-18T22:05:49.389Z,32.70
2022-12-18T22:08:03.223Z,29.73
2022-12-18T22:10:06.677Z,33.88
2022-12-18T22:12:11.959Z,33.08
2022-12-18T22:14:15.044Z,33.15
2022-12-18T22:16:20.284Z,33.65
2022-12-18T22:18:22.918Z,33.63
2022-12-18T22:20:25.229Z,31.70
2022-12-18T22:22:29.406Z,36.45
2022-12-18T22:24:31.795Z,33.83
2022-12-18T22:26:40.159Z,32.33
2022-12-18T22:29:01.935Z,32.63
2022-12-18T22:33:06.563Z,32.45
2022-12-18T22:35:14.156Z,33.88
2022-12-18T22:37:17.971Z,32.20
2022-12-18T22:39:28.514Z,33.28
2022-12-18T22:41:32.036Z,32.95
2022-12-18T22:43:34.931Z,32.72
2022-12-18T22:45:38.531Z,32.08
2022-12-18T22:47:41.644Z,34.63
2022-12-18T22:49:44.005Z,36.67
2022-12-18T22:51:47.738Z,35.35
2022-12-18T22:53:50.958Z,33.20
2022-12-18T22:56:00.530Z,33.92
2022-12-18T22:58:02.788Z,32.38
2022-12-18T23:00:05.994Z,31.27
2022-12-18T23:02:08.594Z,34.22
2022-12-18T23:04:11.436Z,32.08
2022-12-18T23:06:14.746Z,33.60
2022-12-18T23:08:17.042Z,34.72
2022-12-18T23:10:19.326Z,31.00
2022-12-18T23:12:21.930Z,30.58
2022-12-18T23:14:24.271Z,29.20
2022-12-18T23:16:26.905Z,33.05
2022-12-18T23:18:29.551Z,31.45
2022-12-18T23:20:31.814Z,25.25
2022-12-18T23:22:34.078Z,29.35
2022-12-18T23:24:36.732Z,28.27
2022-12-18T23:26:39.190Z,26.52
2022-12-18T23:28:42.533Z,28.60
2022-12-18T23:30:45.072Z,28.45
2022-12-18T23:32:47.424Z,30.08
2022-12-18T23:34:49.698Z,26.25
2022-12-18T23:36:56.033Z,25.02
2022-12-18T23:39:00.639Z,28.38
2022-12-18T23:41:10.896Z,27.10
2022-12-18T23:43:13.450Z,27.90
2022-12-18T23:45:18.148Z,31.65
